Time,TemperatureF,DewpointF,PressureIn,WindDirection,WindDirectionDegrees,WindSpeedMPH,WindSpeedGustMPH,Humidity,HourlyPrecipIn,Conditions,Clouds,dailyrainin,SolarRadiationWatts/m^2,SoftwareType,DateUTC
2013-05-31 00:00:00,73.2,67.4,30.06,ENE,68,0.0,0.0,82,0.00,SCT,BKN,0.00,0.0,WeatherDisplay:10.37,2013-05-31 10:00:00,
2013-05-31 00:05:00,72.7,67.9,30.06,East,90,2.0,2.3,85,0.00,SCT,BKN,0.00,0.0,WeatherDisplay:10.37,2013-05-31 10:05:00,
2013-05-31 00:10:00,72.5,68.1,30.06,ENE,73,2.0,0.0,86,0.00,SCT,BKN,0.00,0.0,WeatherDisplay:10.37,2013-05-31 10:10:00,
2013-05-31 00:15:00,72.3,68.6,30.06,NNW,338,2.6,3.5,88,0.00,SCT,BKN,0.00,0.0,WeatherDisplay:10.37,2013-05-31 10:15:00,
2013-05-31 00:20:00,72.1,68.4,30.06,NE,48,0.0,0.0,88,0.00,SCT,BKN,0.00,0.0,WeatherDisplay:10.37,2013-05-31 10:20:00,
2013-05-31 00:25:00,72.0,68.2,30.06,East,90,0.0,0.0,88,0.00,SCT,BKN,0.00,0.0,WeatherDisplay:10.37,2013-05-31 10:25:00,
2013-05-31 00:30:00,72.0,68.5,30.06,East,97,2.0,0.0,89,0.00,SCT,BKN,0.00,0.0,WeatherDisplay:10.37,2013-05-31 10:30:00,
2013-05-31 00:35:00,71.8,68.4,30.06,East,90,0.0,0.0,89,0.00,SCT,BKN,0.00,0.0,WeatherDisplay:10.37,2013-05-31 10:35:00,
2013-05-31 00:40:00,71.6,68.5,30.06,East,87,0.0,0.0,90,0.00,SCT,BKN,0.00,0.0,WeatherDisplay:10.37,2013-05-31 10:40:00,
2013-05-31 00:45:00,71.6,68.8,30.03,North,0,0.9,1.2,91,0.00,SCT,BKN,0.00,0.0,WeatherDisplay:10.37,2013-05-31 10:45:00,
2013-05-31 00:50:00,71.8,69.3,30.03,NNE,17,2.0,0.0,92,0.00,SCT,BKN,0.00,0.0,WeatherDisplay:10.37,2013-05-31 10:50:00,
2013-05-31 00:55:00,71.6,69.2,30.03,East,79,0.0,0.0,92,0.04,RA,BKN,0.04,0.0,WeatherDisplay:10.37,2013-05-31 10:55:00,
2013-05-31 01:00:00,71.6,69.2,30.03,ESE,123,0.0,0.0,92,0.04,RA,BKN,0.04,0.0,WeatherDisplay:10.37,2013-05-31 11:00:00,
2013-05-31 01:05:00,71.6,69.5,30.03,NE,45,2.0,2.3,93,0.04,SCT,BKN,0.04,0.0,WeatherDisplay:10.37,2013-05-31 11:05:00,
2013-05-31 01:10:00,71.6,69.8,30.03,NNE,27,1.0,0.0,94,0.04,SCT,BKN,0.04,0.0,WeatherDisplay:10.37,2013-05-31 11:10:00,
2013-05-31 01:15:00,71.6,69.5,30.03,NE,41,0.0,0.0,93,0.04,SCT,BKN,0.04,0.0,WeatherDisplay:10.37,2013-05-31 11:15:00,
2013-05-31 01:20:00,71.4,69.6,30.03,NE,51,1.0,0.0,94,0.04,SCT,BKN,0.04,0.0,WeatherDisplay:10.37,2013-05-31 11:20:00,
2013-05-31 01:25:00,71.4,69.6,30.03,ENE,68,0.9,1.4,94,0.04,SCT,BKN,0.04,0.0,WeatherDisplay:10.37,2013-05-31 11:25:00,
2013-05-31 01:30:00,71.4,69.6,30.03,East,90,1.2,2.4,94,0.04,SCT,BKN,0.04,0.0,WeatherDisplay:10.37,2013-05-31 11:30:00,
2013-05-31 01:35:00,71.4,69.3,30.03,SW,225,2.6,3.3,93,0.04,SCT,BKN,0.04,0.0,WeatherDisplay:10.37,2013-05-31 11:35:00,
2013-05-31 01:40:00,71.6,69.8,30.03,ESE,112,2.6,3.3,94,0.04,SCT,BKN,0.04,0.0,WeatherDisplay:10.37,2013-05-31 11:40:00,
2013-05-31 01:45:00,71.4,69.3,30.03,NE,45,0.0,1.2,93,0.04,SCT,BKN,0.04,0.0,WeatherDisplay:10.37,2013-05-31 11:45:00,
2013-05-31 01:50:00,71.4,69.3,30.03,NE,45,1.6,2.3,93,0.04,SCT,BKN,0.04,0.0,WeatherDisplay:10.37,2013-05-31 11:50:00,
2013-05-31 01:55:00,71.4,69.6,30.03,East,90,0.0,0.0,94,0.00,SCT,BKN,0.04,0.0,WeatherDisplay:10.37,2013-05-31 11:55:00,
2013-05-31 02:00:00,71.2,69.4,30.00,East,90,0.0,2.0,94,0.00,SCT,BKN,0.04,0.0,WeatherDisplay:10.37,2013-05-31 12:00:00,
2013-05-31 02:05:00,71.2,69.4,30.00,ESE,112,0.0,2.3,94,0.00,SCT,BKN,0.04,0.0,WeatherDisplay:10.37,2013-05-31 12:05:00,
2013-05-31 02:10:00,70.9,69.1,30.00,East,90,0.0,0.0,94,0.00,RA,BKN,0.04,0.0,WeatherDisplay:10.37,2013-05-31 12:10:00,
2013-05-31 02:15:00,70.9,69.1,30.00,East,90,0.9,1.2,94,0.00,RA,BKN,0.04,0.0,WeatherDisplay:10.37,2013-05-31 12:15:00,
2013-05-31 02:20:00,70.9,69.1,30.00,ESE,112,1.4,2.3,94,0.00,SCT,BKN,0.04,0.0,WeatherDisplay:10.37,2013-05-31 12:20:00,
2013-05-31 02:25:00,70.7,69.2,30.00,ESE,112,0.0,0.0,95,0.00,SCT,BKN,0.04,0.0,WeatherDisplay:10.37,2013-05-31 12:25:00,
2013-05-31 02:30:00,70.7,69.2,29.97,NW,315,0.0,0.0,95,0.00,SCT,BKN,0.04,0.0,WeatherDisplay:10.37,2013-05-31 12:30:00,
2013-05-31 02:35:00,70.7,69.2,29.97,ESE,112,1.4,2.4,95,0.00,SCT,BKN,0.04,0.0,WeatherDisplay:10.37,2013-05-31 12:35:00,
2013-05-31 02:40:00,70.7,69.2,29.97,ESE,112,0.0,1.2,95,0.00,SCT,BKN,0.04,0.0,WeatherDisplay:10.37,2013-05-31 12:40:00,
2013-05-31 02:45:00,70.5,69.0,30.00,ENE,68,0.0,0.0,95,0.00,SCT,BKN,0.04,0.0,WeatherDisplay:10.37,2013-05-31 12:45:00,
2013-05-31 02:50:00,70.5,69.3,30.00,ESE,112,0.0,1.2,96,0.00,SCT,BKN,0.04,0.0,WeatherDisplay:10.37,2013-05-31 12:50:00,
2013-05-31 02:55:00,70.3,69.1,30.00,ESE,112,0.0,1.2,96,0.00,SCT,BKN,0.04,0.0,WeatherDisplay:10.37,2013-05-31 12:55:00,
2013-05-31 03:00:00,70.3,69.1,30.00,East,90,0.0,0.0,96,0.00,SCT,BKN,0.04,0.0,WeatherDisplay:10.37,2013-05-31 13:00:00,
2013-05-31 03:05:00,70.2,69.0,30.00,ESE,112,0.0,0.0,96,0.00,SCT,BKN,0.04,0.0,WeatherDisplay:10.37,2013-05-31 13:05:00,
2013-05-31 03:10:00,70.2,69.0,30.00,ESE,112,0.0,0.0,96,0.00,SCT,BKN,0.04,0.0,WeatherDisplay:10.37,2013-05-31 13:10:00,
2013-05-31 03:15:00,70.2,69.0,30.00,ESE,112,0.0,0.0,96,0.00,SCT,BKN,0.04,0.0,WeatherDisplay:10.37,2013-05-31 13:15:00,
2013-05-31 03:20:00,70.2,69.0,30.00,NE,45,0.0,0.0,96,0.00,SCT,BKN,0.04,0.0,WeatherDisplay:10.37,2013-05-31 13:20:00,
2013-05-31 03:25:00,70.0,68.8,30.00,ENE,68,0.0,2.3,96,0.00,SCT,BKN,0.04,0.0,WeatherDisplay:10.37,2013-05-31 13:25:00,
2013-05-31 03:30:00,70.0,68.8,30.00,ESE,112,0.0,1.2,96,0.00,SCT,BKN,0.04,0.0,WeatherDisplay:10.37,2013-05-31 13:30:00,
2013-05-31 03:35:00,70.2,69.0,30.00,East,90,1.2,2.3,96,0.00,SCT,BKN,0.04,0.0,WeatherDisplay:10.37,2013-05-31 13:35:00,
2013-05-31 03:40:00,70.0,68.8,30.00,ENE,68,1.2,2.3,96,0.00,SCT,BKN,0.04,0.0,WeatherDisplay:10.37,2013-05-31 13:40:00,
2013-05-31 03:45:00,70.0,68.8,30.00,ENE,68,0.0,1.2,96,0.00,SCT,BKN,0.04,0.0,WeatherDisplay:10.37,2013-05-31 13:45:00,
2013-05-31 03:50:00,70.2,69.0,30.00,East,90,0.9,1.2,96,0.00,SCT,BKN,0.04,0.0,WeatherDisplay:10.37,2013-05-31 13:50:00,
2013-05-31 03:55:00,70.0,68.8,30.00,ENE,68,0.9,1.2,96,0.00,SCT,BKN,0.04,0.0,WeatherDisplay:10.37,2013-05-31 13:55:00,
2013-05-31 04:00:00,70.2,69.0,30.00,ESE,112,1.6,2.3,96,0.00,SCT,BKN,0.04,0.0,WeatherDisplay:10.37,2013-05-31 14:00:00,
2013-05-31 04:05:00,70.2,69.0,30.00,ESE,112,0.0,1.2,96,0.00,SCT,BKN,0.04,0.0,WeatherDisplay:10.37,2013-05-31 14:05:00,
2013-05-31 04:10:00,70.2,69.0,30.00,East,90,2.0,2.3,96,0.00,SCT,BKN,0.04,0.0,WeatherDisplay:10.37,2013-05-31 14:10:00,
2013-05-31 04:15:00,70.0,68.8,30.00,ESE,112,1.4,2.3,96,0.00,SCT,BKN,0.04,0.0,WeatherDisplay:10.37,2013-05-31 14:15:00,
2013-05-31 04:20:00,70.0,68.8,30.00,ESE,112,1.4,2.3,96,0.00,SCT,BKN,0.04,0.0,WeatherDisplay:10.37,2013-05-31 14:20:00,
2013-05-31 04:25:00,70.0,68.8,30.00,East,90,1.2,2.3,96,0.00,SCT,BKN,0.04,0.0,WeatherDisplay:10.37,2013-05-31 14:25:00,
2013-05-31 04:30:00,69.8,68.6,30.00,East,90,0.9,1.2,96,0.00,SCT,BKN,0.04,0.0,WeatherDisplay:10.37,2013-05-31 14:30:00,
2013-05-31 04:35:00,69.8,68.6,30.00,East,90,0.0,0.0,96,0.00,SCT,BKN,0.04,0.0,WeatherDisplay:10.37,2013-05-31 14:35:00,
2013-05-31 04:40:00,69.8,68.6,30.00,ESE,112,0.0,0.0,96,0.00,SCT,BKN,0.04,0.0,WeatherDisplay:10.37,2013-05-31 14:40:00,
2013-05-31 04:45:00,69.8,68.6,30.00,ENE,68,1.6,2.3,96,0.00,SCT,BKN,0.04,0.0,WeatherDisplay:10.37,2013-05-31 14:45:00,
2013-05-31 04:50:00,70.0,68.8,30.00,ENE,68,2.0,2.4,96,0.00,SCT,BKN,0.04,0.0,WeatherDisplay:10.37,2013-05-31 14:50:00,
2013-05-31 04:55:00,70.3,69.4,30.00,NE,45,2.6,3.5,97,0.00,SCT,BKN,0.04,0.0,WeatherDisplay:10.37,2013-05-31 14:55:00,
2013-05-31 05:00:00,70.7,69.8,30.00,ENE,68,1.6,3.5,97,0.00,SCT,BKN,0.04,0.0,WeatherDisplay:10.37,2013-05-31 15:00:00,
2013-05-31 05:05:00,70.7,69.5,30.00,East,90,0.0,0.0,96,0.00,SCT,BKN,0.04,0.0,WeatherDisplay:10.37,2013-05-31 15:05:00,
2013-05-31 05:10:00,70.7,69.5,30.00,ESE,112,0.0,0.0,96,0.00,SCT,BKN,0.04,0.0,WeatherDisplay:10.37,2013-05-31 15:10:00,
2013-05-31 05:15:00,70.5,69.0,30.00,ENE,68,1.2,3.1,95,0.00,SCT,BKN,0.04,0.0,WeatherDisplay:10.37,2013-05-31 15:15:00,
2013-05-31 05:20:00,70.5,69.0,30.00,NE,45,2.2,2.6,95,0.00,SCT,BKN,0.04,0.0,WeatherDisplay:10.37,2013-05-31 15:20:00,
2013-05-31 05:25:00,70.7,69.2,30.00,ENE,68,0.0,1.2,95,0.00,SCT,BKN,0.04,0.0,WeatherDisplay:10.37,2013-05-31 15:25:00,
2013-05-31 05:30:00,70.9,69.4,30.00,NE,45,1.6,2.9,95,0.00,SCT,BKN,0.04,0.0,WeatherDisplay:10.37,2013-05-31 15:30:00,
2013-05-31 05:35:00,70.9,69.4,30.00,ENE,68,1.2,2.4,95,0.00,SCT,BKN,0.04,0.0,WeatherDisplay:10.37,2013-05-31 15:35:00,
2013-05-31 05:40:00,70.7,69.2,30.00,ENE,68,1.6,3.5,95,0.00,SCT,BKN,0.04,0.0,WeatherDisplay:10.37,2013-05-31 15:40:00,
2013-05-31 05:45:00,70.7,69.2,30.00,NE,45,0.9,2.3,95,0.00,SCT,BKN,0.04,0.0,WeatherDisplay:10.37,2013-05-31 15:45:00,
2013-05-31 05:50:00,70.9,69.4,30.00,ESE,112,0.0,2.3,95,0.00,SCT,BKN,0.04,0.0,WeatherDisplay:10.37,2013-05-31 15:50:00,
2013-05-31 05:55:00,71.1,69.6,30.00,NE,45,2.6,2.9,95,0.00,SCT,BKN,0.04,0.0,WeatherDisplay:10.37,2013-05-31 15:55:00,
2013-05-31 06:00:00,71.2,69.7,30.00,NE,45,1.6,2.3,95,0.00,SCT,BKN,0.04,0.0,WeatherDisplay:10.37,2013-05-31 16:00:00,
2013-05-31 06:05:00,71.4,69.9,30.00,NE,45,0.9,2.9,95,0.00,SCT,BKN,0.04,0.0,WeatherDisplay:10.37,2013-05-31 16:05:00,
2013-05-31 06:10:00,71.6,69.8,30.00,NE,45,2.0,2.6,94,0.00,SCT,BKN,0.04,0.0,WeatherDisplay:10.37,2013-05-31 16:10:00,
2013-05-31 06:15:00,71.8,69.6,30.00,ENE,68,2.0,3.5,93,0.00,SCT,BKN,0.04,0.0,WeatherDisplay:10.37,2013-05-31 16:15:00,
2013-05-31 06:20:00,72.0,69.5,30.00,NE,45,2.2,3.5,92,0.00,SCT,BKN,0.04,0.0,WeatherDisplay:10.37,2013-05-31 16:20:00,
2013-05-31 06:25:00,72.3,69.5,30.00,NE,45,2.0,4.6,91,0.00,SCT,BKN,0.04,0.0,WeatherDisplay:10.37,2013-05-31 16:25:00,
2013-05-31 06:30:00,72.3,69.2,30.03,ENE,68,1.2,2.3,90,0.00,SCT,BKN,0.04,0.0,WeatherDisplay:10.37,2013-05-31 16:30:00,
2013-05-31 06:35:00,72.3,69.2,30.03,NE,45,0.0,2.0,90,0.00,SCT,BKN,0.04,0.0,WeatherDisplay:10.37,2013-05-31 16:35:00,
2013-05-31 06:40:00,72.3,68.9,30.03,NE,45,0.0,3.5,89,0.00,SCT,BKN,0.04,0.0,WeatherDisplay:10.37,2013-05-31 16:40:00,
2013-05-31 06:45:00,72.1,68.7,30.03,NNW,338,0.0,1.2,89,0.00,SCT,BKN,0.04,0.0,WeatherDisplay:10.37,2013-05-31 16:45:00,
2013-05-31 06:50:00,72.0,68.5,30.03,ESE,112,0.0,2.3,89,0.00,SCT,BKN,0.04,0.0,WeatherDisplay:10.37,2013-05-31 16:50:00,
2013-05-31 06:55:00,72.0,68.5,30.03,ESE,112,0.0,2.3,89,0.00,SCT,BKN,0.04,0.0,WeatherDisplay:10.37,2013-05-31 16:55:00,
2013-05-31 07:00:00,71.8,68.4,30.03,NE,45,1.4,1.4,89,0.00,SCT,BKN,0.04,0.0,WeatherDisplay:10.37,2013-05-31 17:00:00,
2013-05-31 07:05:00,71.6,68.5,30.03,South,180,1.4,2.3,90,0.00,SCT,BKN,0.04,0.0,WeatherDisplay:10.37,2013-05-31 17:05:00,
2013-05-31 07:10:00,71.4,68.7,30.03,ESE,112,0.9,2.0,91,0.00,SCT,BKN,0.04,0.0,WeatherDisplay:10.37,2013-05-31 17:10:00,
2013-05-31 07:15:00,71.4,68.7,30.06,East,90,0.0,1.2,91,0.00,SCT,BKN,0.04,0.0,WeatherDisplay:10.37,2013-05-31 17:15:00,
2013-05-31 07:20:00,71.6,68.8,30.06,East,90,0.0,2.0,91,0.00,SCT,BKN,0.04,0.0,WeatherDisplay:10.37,2013-05-31 17:20:00,
2013-05-31 07:25:00,72.0,69.5,30.06,NE,45,0.0,0.0,92,0.00,SCT,BKN,0.04,0.0,WeatherDisplay:10.37,2013-05-31 17:25:00,
2013-05-31 07:30:00,72.0,69.5,30.06,NE,45,0.0,2.3,92,0.00,SCT,BKN,0.04,0.0,WeatherDisplay:10.37,2013-05-31 17:30:00,
2013-05-31 07:35:00,72.1,69.4,30.06,NE,45,0.0,1.4,91,0.00,SCT,BKN,0.04,0.0,WeatherDisplay:10.37,2013-05-31 17:35:00,
2013-05-31 07:41:00,72.1,69.4,30.06,ESE,112,0.0,0.0,91,0.00,SCT,BKN,0.04,0.0,WeatherDisplay:10.37,2013-05-31 17:41:00,
2013-05-31 07:46:00,72.1,69.4,30.06,ESE,112,0.0,1.2,91,0.00,SCT,BKN,0.04,0.0,WeatherDisplay:10.37,2013-05-31 17:46:00,
2013-05-31 07:51:00,72.1,69.4,30.06,ESE,112,0.0,1.2,91,0.00,SCT,BKN,0.04,0.0,WeatherDisplay:10.37,2013-05-31 17:51:00,
2013-05-31 07:56:00,72.1,69.4,30.06,East,90,0.0,1.2,91,0.00,SCT,BKN,0.04,0.0,WeatherDisplay:10.37,2013-05-31 17:56:00,
2013-05-31 08:01:00,72.0,69.5,30.06,ESE,112,0.0,2.3,92,0.00,SCT,BKN,0.04,0.0,WeatherDisplay:10.37,2013-05-31 18:01:00,
2013-05-31 08:06:00,72.1,69.7,30.06,ESE,112,0.0,1.2,92,0.00,SCT,BKN,0.04,0.0,WeatherDisplay:10.37,2013-05-31 18:06:00,
2013-05-31 08:11:00,72.5,70.0,30.06,ESE,112,0.0,0.0,92,0.00,SCT,BKN,0.04,0.0,WeatherDisplay:10.37,2013-05-31 18:11:00,
2013-05-31 08:16:00,72.9,70.4,30.06,East,90,0.9,2.3,92,0.00,SCT,BKN,0.04,0.0,WeatherDisplay:10.37,2013-05-31 18:16:00,
2013-05-31 08:21:00,73.2,70.8,30.06,North,0,0.0,0.0,92,0.00,SCT,BKN,0.04,0.0,WeatherDisplay:10.37,2013-05-31 18:21:00,
2013-05-31 08:26:00,73.6,70.8,30.06,ESE,112,0.0,1.2,91,0.00,SCT,BKN,0.04,0.0,WeatherDisplay:10.37,2013-05-31 18:26:00,
2013-05-31 08:31:00,73.9,70.8,30.03,ESE,112,0.0,0.0,90,0.00,SCT,BKN,0.04,0.0,WeatherDisplay:10.37,2013-05-31 18:31:00,
2013-05-31 08:37:00,74.1,71.0,30.03,ESE,112,0.0,0.0,90,0.00,SCT,BKN,0.04,0.0,WeatherDisplay:10.37,2013-05-31 18:37:00,
2013-05-31 08:42:00,74.3,71.2,30.03,NE,45,0.9,2.3,90,0.00,SCT,BKN,0.04,0.0,WeatherDisplay:10.37,2013-05-31 18:42:00,
2013-05-31 08:47:00,74.3,70.8,30.03,NE,45,0.0,0.0,89,0.00,SCT,BKN,0.04,125.0,WeatherDisplay:10.37,2013-05-31 18:47:00,
2013-05-31 08:52:00,74.7,71.2,30.03,NE,45,0.9,2.3,89,0.00,SCT,BKN,0.04,125.0,WeatherDisplay:10.37,2013-05-31 18:52:00,
2013-05-31 08:57:00,74.8,70.7,30.03,NE,45,0.0,1.2,87,0.00,SCT,BKN,0.04,125.0,WeatherDisplay:10.37,2013-05-31 18:57:00,
2013-05-31 09:02:00,75.4,71.2,30.03,East,90,1.4,2.3,87,0.00,SCT,BKN,0.04,125.0,WeatherDisplay:10.37,2013-05-31 19:02:00,
2013-05-31 09:07:00,75.4,71.2,30.03,ENE,68,0.0,0.0,87,0.00,SCT,BKN,0.04,125.0,WeatherDisplay:10.37,2013-05-31 19:07:00,
2013-05-31 09:12:00,75.7,71.6,30.06,NE,45,0.0,0.0,87,0.00,SCT,BKN,0.04,125.0,WeatherDisplay:10.37,2013-05-31 19:12:00,
2013-05-31 09:17:00,75.9,71.8,30.06,NNE,22,0.0,1.2,87,0.00,SCT,BKN,0.04,125.0,WeatherDisplay:10.37,2013-05-31 19:17:00,
2013-05-31 09:22:00,76.1,71.3,30.06,NE,45,2.0,2.3,85,0.00,SCT,BKN,0.04,125.0,WeatherDisplay:10.37,2013-05-31 19:22:00,
2013-05-31 09:27:00,76.5,70.9,30.06,NE,45,2.4,3.5,83,0.00,SCT,BKN,0.04,250.0,WeatherDisplay:10.37,2013-05-31 19:27:00,
2013-05-31 09:32:00,76.8,71.3,30.06,NE,45,0.0,0.0,83,0.04,RA,BKN,0.08,125.0,WeatherDisplay:10.37,2013-05-31 19:32:00,
2013-05-31 09:37:00,77.4,71.4,30.06,NNW,338,0.9,1.4,82,0.04,RA,BKN,0.08,250.0,WeatherDisplay:10.37,2013-05-31 19:37:00,
2013-05-31 09:42:00,77.2,70.2,30.03,NNW,338,3.3,4.6,79,0.04,SCT,BKN,0.08,250.0,WeatherDisplay:10.37,2013-05-31 19:42:00,
2013-05-31 09:48:00,77.5,70.1,30.03,NW,315,1.2,2.4,78,0.04,SCT,BKN,0.08,500.0,WeatherDisplay:10.37,2013-05-31 19:48:00,
2013-05-31 09:53:00,78.6,70.8,30.03,NW,315,2.2,2.4,77,0.04,SCT,BKN,0.08,250.0,WeatherDisplay:10.37,2013-05-31 19:53:00,
2013-05-31 09:58:00,78.8,70.2,30.06,North,0,0.0,2.3,75,0.04,SCT,BKN,0.08,250.0,WeatherDisplay:10.37,2013-05-31 19:58:00,
2013-05-31 10:03:00,78.4,69.5,30.06,NNE,22,3.3,5.8,74,0.04,SCT,BKN,0.08,250.0,WeatherDisplay:10.37,2013-05-31 20:03:00,
2013-05-31 10:08:00,78.4,69.9,30.06,ENE,68,1.2,2.3,75,0.04,SCT,BKN,0.08,125.0,WeatherDisplay:10.37,2013-05-31 20:08:00,
2013-05-31 10:13:00,78.6,70.8,30.06,East,90,0.0,2.3,77,0.04,SCT,BKN,0.08,125.0,WeatherDisplay:10.37,2013-05-31 20:13:00,
2013-05-31 10:19:00,77.9,70.1,30.06,NNW,338,2.9,5.8,77,0.04,SCT,BKN,0.08,250.0,WeatherDisplay:10.37,2013-05-31 20:19:00,
2013-05-31 10:24:00,77.4,70.0,30.06,South,180,0.0,0.0,78,0.04,SCT,BKN,0.08,125.0,WeatherDisplay:10.37,2013-05-31 20:24:00,
2013-05-31 10:29:00,77.2,70.2,30.06,NNW,338,1.6,2.3,79,0.00,SCT,BKN,0.08,375.0,WeatherDisplay:10.37,2013-05-31 20:29:00,
2013-05-31 10:34:00,77.0,70.4,30.06,NW,315,0.9,2.3,80,0.00,SCT,BKN,0.08,250.0,WeatherDisplay:10.37,2013-05-31 20:34:00,
2013-05-31 10:39:00,77.5,72.3,30.06,West,270,2.9,3.5,84,0.00,SCT,BKN,0.08,250.0,WeatherDisplay:10.37,2013-05-31 20:39:00,
2013-05-31 10:44:00,77.5,72.0,30.06,NE,45,0.0,0.0,83,0.00,SCT,BKN,0.08,250.0,WeatherDisplay:10.37,2013-05-31 20:44:00,
2013-05-31 10:49:00,77.4,71.1,30.06,NNE,22,3.3,5.8,81,0.00,SCT,BKN,0.08,250.0,WeatherDisplay:10.37,2013-05-31 20:49:00,
2013-05-31 10:54:00,77.4,71.4,30.06,NE,45,2.0,2.9,82,0.00,SCT,BKN,0.08,250.0,WeatherDisplay:10.37,2013-05-31 20:54:00,
2013-05-31 10:59:00,76.8,70.9,30.06,WNW,292,2.4,3.5,82,0.00,SCT,BKN,0.08,250.0,WeatherDisplay:10.37,2013-05-31 20:59:00,
2013-05-31 11:04:00,76.6,71.4,30.06,NW,315,2.0,4.9,84,0.00,SCT,BKN,0.08,250.0,WeatherDisplay:10.37,2013-05-31 21:04:00,
2013-05-31 11:09:00,76.5,71.6,30.06,WNW,292,3.1,4.6,85,0.00,SCT,BKN,0.08,375.0,WeatherDisplay:10.37,2013-05-31 21:09:00,
2013-05-31 11:14:00,77.2,72.7,30.06,East,90,0.9,2.3,86,0.00,SCT,BKN,0.08,250.0,WeatherDisplay:10.37,2013-05-31 21:14:00,
2013-05-31 11:19:00,76.6,71.8,30.06,NNE,22,2.4,3.5,85,0.00,SCT,BKN,0.08,125.0,WeatherDisplay:10.37,2013-05-31 21:19:00,
2013-05-31 11:24:00,76.8,72.3,30.06,East,90,2.6,4.6,86,0.04,RA,BKN,0.12,250.0,WeatherDisplay:10.37,2013-05-31 21:24:00,
2013-05-31 11:29:00,77.4,72.5,30.06,NNE,22,2.2,2.3,85,0.04,RA,BKN,0.12,375.0,WeatherDisplay:10.37,2013-05-31 21:29:00,
2013-05-31 11:34:00,77.4,72.5,30.06,NNW,338,1.4,2.3,85,0.04,SCT,BKN,0.12,125.0,WeatherDisplay:10.37,2013-05-31 21:34:00,
2013-05-31 11:39:00,77.2,71.6,30.06,East,90,3.6,5.9,83,0.04,SCT,BKN,0.12,375.0,WeatherDisplay:10.37,2013-05-31 21:39:00,
2013-05-31 11:44:00,77.4,72.1,30.03,NW,315,0.0,0.0,84,0.04,SCT,BKN,0.12,250.0,WeatherDisplay:10.37,2013-05-31 21:44:00,
2013-05-31 11:49:00,77.7,72.5,30.03,NNW,338,3.6,3.6,84,0.04,SCT,BKN,0.12,250.0,WeatherDisplay:10.37,2013-05-31 21:49:00,
2013-05-31 11:54:00,77.4,71.8,30.03,NE,45,3.1,3.6,83,0.04,SCT,BKN,0.12,375.0,WeatherDisplay:10.37,2013-05-31 21:54:00,
2013-05-31 11:59:00,76.6,71.1,30.06,NE,45,2.4,8.1,83,0.04,SCT,BKN,0.12,250.0,WeatherDisplay:10.37,2013-05-31 21:59:00,
2013-05-31 12:04:00,76.1,71.6,30.06,ENE,68,3.1,5.8,86,0.04,SCT,BKN,0.12,250.0,WeatherDisplay:10.37,2013-05-31 22:04:00,
2013-05-31 12:09:00,75.7,71.3,30.06,North,0,2.2,3.5,86,0.04,SCT,BKN,0.12,250.0,WeatherDisplay:10.37,2013-05-31 22:09:00,
2013-05-31 12:14:00,76.1,71.9,30.06,NNE,22,3.3,4.6,87,0.04,SCT,BKN,0.12,500.0,WeatherDisplay:10.37,2013-05-31 22:14:00,
2013-05-31 12:19:00,76.8,72.7,30.06,NNW,338,0.0,1.2,87,0.04,SCT,BKN,0.12,375.0,WeatherDisplay:10.37,2013-05-31 22:19:00,
2013-05-31 12:24:00,77.2,72.7,30.06,ENE,68,0.9,1.4,86,0.00,SCT,BKN,0.12,375.0,WeatherDisplay:10.37,2013-05-31 22:24:00,
2013-05-31 12:29:00,76.1,70.9,30.06,NNE,22,2.2,4.6,84,0.00,SCT,BKN,0.12,250.0,WeatherDisplay:10.37,2013-05-31 22:29:00,
2013-05-31 12:35:00,75.7,71.3,30.06,ESE,112,1.4,3.5,86,0.00,SCT,BKN,0.12,250.0,WeatherDisplay:10.37,2013-05-31 22:35:00,
2013-05-31 12:40:00,76.5,72.3,30.06,NNE,22,0.9,1.4,87,0.00,SCT,BKN,0.12,375.0,WeatherDisplay:10.37,2013-05-31 22:40:00,
2013-05-31 12:45:00,76.8,72.7,30.06,NNE,22,1.2,3.8,87,0.00,SCT,BKN,0.12,250.0,WeatherDisplay:10.37,2013-05-31 22:45:00,
2013-05-31 12:50:00,76.4,72.2,30.06,NE,35,2.0,0.0,87,0.04,RA,BKN,0.16,125.0,WeatherDisplay:10.37,2013-05-31 22:50:00,
2013-05-31 12:55:00,76.1,71.9,30.06,NNE,22,0.9,3.5,87,0.04,RA,BKN,0.16,250.0,WeatherDisplay:10.37,2013-05-31 22:55:00,
2013-05-31 13:00:00,76.1,71.9,30.06,North,0,1.4,2.3,87,0.04,SCT,BKN,0.16,250.0,WeatherDisplay:10.37,2013-05-31 23:00:00,
2013-05-31 13:05:00,75.9,71.8,30.06,NNE,22,2.2,4.6,87,0.04,SCT,BKN,0.16,125.0,WeatherDisplay:10.37,2013-05-31 23:05:00,
2013-05-31 13:10:00,77.0,72.8,30.06,NE,34,1.0,0.0,87,0.04,SCT,BKN,0.16,250.0,WeatherDisplay:10.37,2013-05-31 23:10:00,
2013-05-31 13:15:00,77.2,72.3,30.06,ENE,67,1.0,0.0,85,0.04,SCT,BKN,0.16,500.0,WeatherDisplay:10.37,2013-05-31 23:15:00,
2013-05-31 13:20:00,77.6,73.1,30.06,ENE,60,2.0,0.0,86,0.04,SCT,BKN,0.16,500.0,WeatherDisplay:10.37,2013-05-31 23:20:00,
2013-05-31 13:25:00,79.7,75.1,30.06,NE,51,1.0,0.0,86,0.04,SCT,BKN,0.16,500.0,WeatherDisplay:10.37,2013-05-31 23:25:00,
2013-05-31 13:30:00,79.6,74.0,30.03,NE,48,0.0,0.0,83,0.04,SCT,BKN,0.16,500.0,WeatherDisplay:10.37,2013-05-31 23:30:00,
2013-05-31 13:35:00,78.7,72.4,30.03,NNE,33,2.0,0.0,81,0.04,SCT,BKN,0.16,250.0,WeatherDisplay:10.37,2013-05-31 23:35:00,
2013-05-31 13:40:00,78.3,72.3,30.03,NE,45,1.0,0.0,82,0.04,SCT,BKN,0.16,375.0,WeatherDisplay:10.37,2013-05-31 23:40:00,
2013-05-31 13:45:00,77.9,71.6,30.03,East,90,2.0,0.0,81,0.04,SCT,BKN,0.16,625.0,WeatherDisplay:10.37,2013-05-31 23:45:00,
2013-05-31 13:50:00,77.8,72.2,30.03,NNE,31,5.0,0.0,83,0.00,SCT,BKN,0.16,375.0,WeatherDisplay:10.37,2013-05-31 23:50:00,
2013-05-31 13:55:00,77.5,72.0,30.03,NNE,24,1.0,0.0,83,0.00,SCT,BKN,0.16,250.0,WeatherDisplay:10.37,2013-05-31 23:55:00,
2013-05-31 14:00:00,78.3,72.3,30.03,NE,40,1.0,0.0,82,0.00,SCT,BKN,0.16,500.0,WeatherDisplay:10.37,2013-06-01 00:00:00,
2013-05-31 14:05:00,79.2,72.2,30.03,NE,37,2.0,0.0,79,0.00,SCT,BKN,0.16,500.0,WeatherDisplay:10.37,2013-06-01 00:05:00,
2013-05-31 14:10:00,80.6,73.5,30.03,ENE,68,1.0,0.0,79,0.00,SCT,BKN,0.16,375.0,WeatherDisplay:10.37,2013-06-01 00:10:00,
2013-05-31 14:15:00,80.4,72.2,30.03,NNE,22,2.0,2.4,76,0.00,SCT,BKN,0.16,125.0,WeatherDisplay:10.37,2013-06-01 00:15:00,
2013-05-31 14:20:00,79.0,71.2,30.03,ESE,112,2.0,2.3,77,0.00,SCT,BKN,0.16,625.0,WeatherDisplay:10.37,2013-06-01 00:20:00,
2013-05-31 14:25:00,80.6,73.5,30.03,NNE,22,1.4,2.6,79,0.00,SCT,BKN,0.16,625.0,WeatherDisplay:10.37,2013-06-01 00:25:00,
2013-05-31 14:30:00,80.1,72.2,30.03,NNE,22,0.9,2.3,77,0.00,SCT,BKN,0.16,375.0,WeatherDisplay:10.37,2013-06-01 00:30:00,
2013-05-31 14:35:00,80.6,72.3,30.03,ENE,68,3.8,5.4,76,0.00,SCT,BKN,0.16,375.0,WeatherDisplay:10.37,2013-06-01 00:35:00,
2013-05-31 14:40:00,81.1,73.2,30.03,NNW,338,2.6,5.9,77,0.00,SCT,BKN,0.16,1000.0,WeatherDisplay:10.37,2013-06-01 00:40:00,
2013-05-31 14:45:00,81.5,72.0,30.03,NNE,22,2.6,4.6,73,0.00,SCT,BKN,0.16,625.0,WeatherDisplay:10.37,2013-06-01 00:45:00,
2013-05-31 14:50:00,81.3,71.4,30.03,NNE,22,4.7,6.9,72,0.00,SCT,BKN,0.16,750.0,WeatherDisplay:10.37,2013-06-01 00:50:00,
2013-05-31 14:55:00,79.9,71.2,30.03,NE,45,2.0,3.6,75,0.05,RA,BKN,0.21,500.0,WeatherDisplay:10.37,2013-06-01 00:55:00,
2013-05-31 15:00:00,81.3,73.4,30.03,NNE,22,1.6,3.1,77,0.05,RA,BKN,0.21,1000.0,WeatherDisplay:10.37,2013-06-01 01:00:00,
2013-05-31 15:05:00,82.0,72.5,30.03,NE,45,3.8,5.8,73,0.05,SCT,BKN,0.21,1125.0,WeatherDisplay:10.37,2013-06-01 01:05:00,
2013-05-31 15:10:00,81.7,71.4,30.03,NE,45,3.6,5.8,71,0.05,SCT,BKN,0.21,375.0,WeatherDisplay:10.37,2013-06-01 01:10:00,
2013-05-31 15:15:00,81.5,72.0,30.03,NE,45,3.6,5.8,73,0.05,SCT,BKN,0.21,1125.0,WeatherDisplay:10.37,2013-06-01 01:15:00,
2013-05-31 15:20:00,81.3,71.4,30.03,NE,45,2.0,3.5,72,0.05,SCT,BKN,0.21,250.0,WeatherDisplay:10.37,2013-06-01 01:20:00,
2013-05-31 15:25:00,80.2,71.2,30.03,North,0,3.1,4.6,74,0.05,SCT,BKN,0.21,250.0,WeatherDisplay:10.37,2013-06-01 01:25:00,
2013-05-31 15:30:00,79.7,70.7,30.03,NE,45,2.2,3.5,74,0.05,SCT,BKN,0.21,625.0,WeatherDisplay:10.37,2013-06-01 01:30:00,
2013-05-31 15:35:00,80.2,71.2,30.03,NE,45,2.4,4.0,74,0.05,SCT,BKN,0.21,375.0,WeatherDisplay:10.37,2013-06-01 01:35:00,
2013-05-31 15:40:00,79.5,70.9,30.03,East,90,4.9,5.4,75,0.05,SCT,BKN,0.21,875.0,WeatherDisplay:10.37,2013-06-01 01:40:00,
2013-05-31 15:45:00,79.5,70.9,30.03,North,0,2.9,5.8,75,0.05,SCT,BKN,0.21,375.0,WeatherDisplay:10.37,2013-06-01 01:45:00,
2013-05-31 15:50:00,78.4,70.2,30.03,West,270,3.8,4.6,76,0.05,SCT,BKN,0.21,500.0,WeatherDisplay:10.37,2013-06-01 01:50:00,
2013-05-31 15:55:00,78.6,70.4,30.03,ENE,68,4.0,5.8,76,0.00,SCT,BKN,0.21,250.0,WeatherDisplay:10.37,2013-06-01 01:55:00,
2013-05-31 16:00:00,78.6,70.4,30.03,North,0,4.0,5.8,76,0.00,SCT,BKN,0.21,625.0,WeatherDisplay:10.37,2013-06-01 02:00:00,
2013-05-31 16:05:00,78.4,70.2,30.03,NE,45,4.3,5.8,76,0.00,SCT,BKN,0.21,250.0,WeatherDisplay:10.37,2013-06-01 02:05:00,
2013-05-31 16:11:00,79.5,71.3,30.03,NNE,22,4.3,5.8,76,0.00,SCT,BKN,0.21,625.0,WeatherDisplay:10.37,2013-06-01 02:11:00,
2013-05-31 16:16:00,79.9,71.6,30.03,NNE,22,2.9,6.4,76,0.00,SCT,BKN,0.21,500.0,WeatherDisplay:10.37,2013-06-01 02:16:00,
2013-05-31 16:21:00,79.2,70.2,30.03,NE,45,3.6,5.8,74,0.00,SCT,BKN,0.21,125.0,WeatherDisplay:10.37,2013-06-01 02:21:00,
2013-05-31 16:26:00,78.4,70.2,30.03,NE,45,4.7,5.8,76,0.00,SCT,BKN,0.21,250.0,WeatherDisplay:10.37,2013-06-01 02:26:00,
2013-05-31 16:31:00,80.2,72.4,30.03,NE,45,2.0,3.5,77,0.00,SCT,BKN,0.21,125.0,WeatherDisplay:10.37,2013-06-01 02:31:00,
2013-05-31 16:36:00,78.6,69.6,30.03,SSW,202,2.2,2.3,74,0.00,SCT,BKN,0.21,250.0,WeatherDisplay:10.37,2013-06-01 02:36:00,
2013-05-31 16:41:00,77.9,70.1,30.03,East,90,4.7,5.8,77,0.00,SCT,BKN,0.21,250.0,WeatherDisplay:10.37,2013-06-01 02:41:00,
2013-05-31 16:46:00,77.7,69.9,30.03,ENE,68,2.2,4.6,77,0.00,SCT,BKN,0.21,125.0,WeatherDisplay:10.37,2013-06-01 02:46:00,
2013-05-31 16:51:00,77.4,69.6,30.03,NE,45,2.0,4.6,77,0.00,SCT,BKN,0.21,125.0,WeatherDisplay:10.37,2013-06-01 02:51:00,
2013-05-31 16:56:00,77.2,69.8,30.03,NE,45,3.1,7.6,78,0.00,SCT,BKN,0.21,125.0,WeatherDisplay:10.37,2013-06-01 02:56:00,
2013-05-31 17:02:00,77.0,70.0,30.03,ESE,112,2.2,3.3,79,0.00,SCT,BKN,0.21,125.0,WeatherDisplay:10.37,2013-06-01 03:02:00,
2013-05-31 17:07:00,76.8,69.8,30.03,NW,315,1.6,3.5,79,0.00,SCT,BKN,0.21,125.0,WeatherDisplay:10.37,2013-06-01 03:07:00,
2013-05-31 17:12:00,76.6,69.6,30.03,East,90,0.9,3.8,79,0.00,SCT,BKN,0.21,125.0,WeatherDisplay:10.37,2013-06-01 03:12:00,
2013-05-31 17:17:00,76.6,69.3,30.03,NE,45,1.6,3.5,78,0.00,SCT,BKN,0.21,0.0,WeatherDisplay:10.37,2013-06-01 03:17:00,
2013-05-31 17:22:00,76.6,69.3,30.03,ENE,68,3.6,5.8,78,0.00,SCT,BKN,0.21,0.0,WeatherDisplay:10.37,2013-06-01 03:22:00,
2013-05-31 17:27:00,76.5,69.5,30.03,East,90,3.6,4.7,79,0.00,SCT,BKN,0.21,0.0,WeatherDisplay:10.37,2013-06-01 03:27:00,
2013-05-31 17:32:00,76.5,69.5,30.03,NE,45,2.6,3.5,79,0.00,SCT,BKN,0.21,0.0,WeatherDisplay:10.37,2013-06-01 03:32:00,
2013-05-31 17:37:00,76.1,69.5,30.03,East,90,1.4,4.6,80,0.00,SCT,BKN,0.21,0.0,WeatherDisplay:10.37,2013-06-01 03:37:00,
2013-05-31 17:42:00,75.9,69.3,30.03,South,180,3.6,3.6,80,0.00,SCT,BKN,0.21,0.0,WeatherDisplay:10.37,2013-06-01 03:42:00,
2013-05-31 17:47:00,75.7,69.1,30.03,SSE,158,1.2,2.3,80,0.00,SCT,BKN,0.21,0.0,WeatherDisplay:10.37,2013-06-01 03:47:00,
2013-05-31 17:52:00,75.4,68.8,30.03,NE,45,1.6,3.1,80,0.00,SCT,BKN,0.21,0.0,WeatherDisplay:10.37,2013-06-01 03:52:00,
2013-05-31 17:57:00,75.2,68.6,30.03,NE,45,1.6,2.3,80,0.00,SCT,BKN,0.21,0.0,WeatherDisplay:10.37,2013-06-01 03:57:00,
2013-05-31 18:01:00,75.2,68.6,30.03,WSW,248,0.0,0.0,80,0.00,SCT,BKN,0.21,0.0,WeatherDisplay:10.37,2013-06-01 04:01:00,
2013-05-31 18:02:00,75.2,68.6,30.03,ENE,68,0.0,1.4,80,0.00,SCT,BKN,0.21,0.0,WeatherDisplay:10.37,2013-06-01 04:02:00,
2013-05-31 18:07:00,75.2,68.6,30.03,NNE,22,2.0,3.5,80,0.00,SCT,BKN,0.21,0.0,WeatherDisplay:10.37,2013-06-01 04:07:00,
2013-05-31 18:12:00,75.2,68.6,30.06,East,90,1.4,2.6,80,0.00,SCT,BKN,0.21,0.0,WeatherDisplay:10.37,2013-06-01 04:12:00,
2013-05-31 18:17:00,76.1,69.5,30.06,NNW,338,1.2,2.6,80,0.00,SCT,BKN,0.21,0.0,WeatherDisplay:10.37,2013-06-01 04:17:00,
2013-05-31 18:22:00,77.5,70.5,30.06,East,90,3.1,5.8,79,0.00,SCT,BKN,0.21,0.0,WeatherDisplay:10.37,2013-06-01 04:22:00,
2013-05-31 18:27:00,78.6,71.2,30.06,ESE,112,0.0,1.2,78,0.00,SCT,BKN,0.21,0.0,WeatherDisplay:10.37,2013-06-01 04:27:00,
2013-05-31 18:32:00,77.9,70.1,30.06,West,270,0.0,1.2,77,0.00,SCT,BKN,0.21,0.0,WeatherDisplay:10.37,2013-06-01 04:32:00,
2013-05-31 18:37:00,77.2,69.4,30.06,NE,45,0.0,2.2,77,0.00,SCT,BKN,0.21,0.0,WeatherDisplay:10.37,2013-06-01 04:37:00,
2013-05-31 18:43:00,76.6,68.9,30.06,ENE,68,2.9,3.8,77,0.00,SCT,BKN,0.21,0.0,WeatherDisplay:10.37,2013-06-01 04:43:00,
2013-05-31 18:48:00,76.1,68.7,30.06,NW,315,0.9,2.3,78,0.00,SCT,BKN,0.21,0.0,WeatherDisplay:10.37,2013-06-01 04:48:00,
2013-05-31 18:53:00,75.7,68.4,30.06,SSE,158,2.0,2.3,78,0.00,SCT,BKN,0.21,0.0,WeatherDisplay:10.37,2013-06-01 04:53:00,
2013-05-31 18:58:00,75.6,68.2,30.06,NNW,338,2.2,4.6,78,0.00,SCT,BKN,0.21,0.0,WeatherDisplay:10.37,2013-06-01 04:58:00,
2013-05-31 19:04:00,75.2,68.2,30.06,NW,315,1.4,4.6,79,0.00,SCT,BKN,0.21,0.0,WeatherDisplay:10.37,2013-06-01 05:04:00,
2013-05-31 19:09:00,75.0,68.4,30.06,WSW,248,2.2,3.5,80,0.00,SCT,BKN,0.21,0.0,WeatherDisplay:10.37,2013-06-01 05:09:00,
2013-05-31 19:14:00,75.0,68.4,30.06,ENE,68,2.0,4.6,80,0.00,SCT,BKN,0.21,0.0,WeatherDisplay:10.37,2013-06-01 05:14:00,
2013-05-31 19:19:00,75.0,68.4,30.06,NNE,22,1.4,2.3,80,0.00,SCT,BKN,0.21,0.0,WeatherDisplay:10.37,2013-06-01 05:19:00,
2013-05-31 19:24:00,74.7,68.4,30.06,ESE,112,0.0,2.3,81,0.00,SCT,BKN,0.21,0.0,WeatherDisplay:10.37,2013-06-01 05:24:00,
2013-05-31 19:29:00,74.7,68.4,30.06,SSW,202,2.9,3.5,81,0.00,SCT,BKN,0.21,0.0,WeatherDisplay:10.37,2013-06-01 05:29:00,
2013-05-31 19:34:00,74.8,68.3,30.06,SSE,158,1.2,4.6,80,0.00,RA,BKN,0.21,0.0,WeatherDisplay:10.37,2013-06-01 05:34:00,
2013-05-31 19:39:00,74.8,68.3,30.06,WSW,248,4.0,4.6,80,0.00,RA,BKN,0.21,0.0,WeatherDisplay:10.37,2013-06-01 05:39:00,
2013-05-31 19:44:00,74.8,67.9,30.03,SW,225,2.6,4.0,79,0.00,SCT,BKN,0.21,0.0,WeatherDisplay:10.37,2013-06-01 05:44:00,
2013-05-31 19:49:00,74.8,68.3,30.03,SW,225,1.6,3.5,80,0.00,SCT,BKN,0.21,0.0,WeatherDisplay:10.37,2013-06-01 05:49:00,
2013-05-31 19:54:00,74.8,67.9,30.03,South,180,1.6,4.6,79,0.00,SCT,BKN,0.21,0.0,WeatherDisplay:10.37,2013-06-01 05:54:00,
2013-05-31 19:59:00,74.8,67.9,30.03,NW,315,3.6,4.6,79,0.00,SCT,BKN,0.21,0.0,WeatherDisplay:10.37,2013-06-01 05:59:00,
2013-05-31 20:04:00,74.7,68.1,30.03,SE,135,4.5,5.8,80,0.00,SCT,BKN,0.21,0.0,WeatherDisplay:10.37,2013-06-01 06:04:00,
2013-05-31 20:09:00,74.7,68.1,30.03,East,90,2.9,4.6,80,0.00,SCT,BKN,0.21,0.0,WeatherDisplay:10.37,2013-06-01 06:09:00,
2013-05-31 20:14:00,74.7,68.4,30.06,WNW,292,1.6,4.6,81,0.00,SCT,BKN,0.21,0.0,WeatherDisplay:10.37,2013-06-01 06:14:00,
2013-05-31 20:20:00,74.8,68.6,30.06,NNW,338,2.2,3.5,81,0.00,SCT,BKN,0.21,0.0,WeatherDisplay:10.37,2013-06-01 06:20:00,
2013-05-31 20:25:00,74.8,68.3,30.06,NNW,338,0.9,1.2,80,0.00,SCT,BKN,0.21,0.0,WeatherDisplay:10.37,2013-06-01 06:25:00,
2013-05-31 20:30:00,74.8,68.3,30.06,South,180,0.0,2.9,80,0.00,SCT,BKN,0.21,0.0,WeatherDisplay:10.37,2013-06-01 06:30:00,
2013-05-31 20:35:00,74.8,68.3,30.06,NW,315,2.9,4.5,80,0.00,SCT,BKN,0.21,0.0,WeatherDisplay:10.37,2013-06-01 06:35:00,
2013-05-31 20:40:00,74.8,68.3,30.06,SW,225,1.6,4.9,80,0.00,SCT,BKN,0.21,0.0,WeatherDisplay:10.37,2013-06-01 06:40:00,
2013-05-31 20:45:00,74.8,68.3,30.09,East,90,1.2,1.2,80,0.00,SCT,BKN,0.21,0.0,WeatherDisplay:10.37,2013-06-01 06:45:00,
2013-05-31 20:50:00,74.8,67.9,30.09,NNE,22,2.0,5.9,79,0.00,SCT,BKN,0.21,0.0,WeatherDisplay:10.37,2013-06-01 06:50:00,
2013-05-31 20:55:00,74.8,67.9,30.09,North,3,0.0,0.0,79,0.00,SCT,BKN,0.21,0.0,WeatherDisplay:10.37,2013-06-01 06:55:00,
2013-05-31 21:00:00,74.7,67.7,30.09,South,183,1.0,0.0,79,0.00,SCT,BKN,0.21,0.0,WeatherDisplay:10.37,2013-06-01 07:00:00,
2013-05-31 21:05:00,74.7,67.7,30.09,East,94,5.0,0.0,79,0.00,SCT,BKN,0.21,0.0,WeatherDisplay:10.37,2013-06-01 07:05:00,
2013-05-31 21:10:00,74.7,67.7,30.09,NE,50,3.0,0.0,79,0.00,SCT,BKN,0.21,0.0,WeatherDisplay:10.37,2013-06-01 07:10:00,
2013-05-31 21:15:00,74.7,67.7,30.09,ENE,65,2.0,0.0,79,0.00,SCT,BKN,0.21,0.0,WeatherDisplay:10.37,2013-06-01 07:15:00,
2013-05-31 21:20:00,74.5,67.5,30.09,ESE,112,0.9,2.3,79,0.00,SCT,BKN,0.21,0.0,WeatherDisplay:10.37,2013-06-01 07:20:00,
2013-05-31 21:25:00,74.5,67.5,30.09,ENE,75,1.0,0.0,79,0.00,SCT,BKN,0.21,0.0,WeatherDisplay:10.37,2013-06-01 07:25:00,
2013-05-31 21:30:00,74.7,67.7,30.09,SE,135,0.9,2.3,79,0.00,SCT,BKN,0.21,0.0,WeatherDisplay:10.37,2013-06-01 07:30:00,
2013-05-31 21:35:00,74.5,67.5,30.09,SSE,158,1.4,3.5,79,0.00,SCT,BKN,0.21,0.0,WeatherDisplay:10.37,2013-06-01 07:35:00,
2013-05-31 21:40:00,74.5,67.5,30.09,SSW,202,1.4,4.6,79,0.00,SCT,BKN,0.21,0.0,WeatherDisplay:10.37,2013-06-01 07:40:00,
2013-05-31 21:45:00,74.5,67.5,30.09,SSW,192,2.0,0.0,79,0.00,SCT,BKN,0.21,0.0,WeatherDisplay:10.37,2013-06-01 07:45:00,
2013-05-31 21:50:00,74.5,67.5,30.09,West,270,3.1,3.8,79,0.00,SCT,BKN,0.21,0.0,WeatherDisplay:10.37,2013-06-01 07:50:00,
2013-05-31 21:55:00,74.5,67.5,30.09,WNW,300,2.0,0.0,79,0.00,SCT,BKN,0.21,0.0,WeatherDisplay:10.37,2013-06-01 07:55:00,
2013-05-31 22:00:00,74.5,67.5,30.12,NE,45,2.9,3.5,79,0.00,SCT,BKN,0.21,0.0,WeatherDisplay:10.37,2013-06-01 08:00:00,
2013-05-31 22:05:00,74.3,67.7,30.12,NNE,22,1.6,2.3,80,0.00,SCT,BKN,0.21,0.0,WeatherDisplay:10.37,2013-06-01 08:05:00,
2013-05-31 22:10:00,74.5,67.5,30.12,East,90,2.9,3.6,79,0.00,SCT,BKN,0.21,0.0,WeatherDisplay:10.37,2013-06-01 08:10:00,
2013-05-31 22:16:00,74.5,67.5,30.12,SE,135,0.9,2.3,79,0.00,SCT,BKN,0.21,0.0,WeatherDisplay:10.37,2013-06-01 08:16:00,
2013-05-31 22:21:00,74.5,67.5,30.12,NNE,22,1.6,3.5,79,0.00,SCT,BKN,0.21,0.0,WeatherDisplay:10.37,2013-06-01 08:21:00,
2013-05-31 22:26:00,74.3,67.4,30.12,North,0,2.6,3.5,79,0.00,SCT,BKN,0.21,0.0,WeatherDisplay:10.37,2013-06-01 08:26:00,
2013-05-31 22:31:00,74.3,67.4,30.12,SE,135,1.2,2.4,79,0.00,SCT,BKN,0.21,0.0,WeatherDisplay:10.37,2013-06-01 08:31:00,
2013-05-31 22:36:00,74.3,67.0,30.12,NNW,338,3.6,7.1,78,0.00,SCT,BKN,0.21,0.0,WeatherDisplay:10.37,2013-06-01 08:36:00,
2013-05-31 22:41:00,74.3,67.4,30.12,ENE,68,1.4,2.3,79,0.00,SCT,BKN,0.21,0.0,WeatherDisplay:10.37,2013-06-01 08:41:00,
2013-05-31 22:46:00,74.3,67.4,30.12,East,90,2.0,3.5,79,0.00,SCT,BKN,0.21,0.0,WeatherDisplay:10.37,2013-06-01 08:46:00,
2013-05-31 22:51:00,74.5,67.5,30.12,South,180,2.4,3.5,79,0.00,SCT,BKN,0.21,0.0,WeatherDisplay:10.37,2013-06-01 08:51:00,
2013-05-31 22:56:00,74.5,67.5,30.12,ESE,112,0.9,3.5,79,0.00,SCT,BKN,0.21,0.0,WeatherDisplay:10.37,2013-06-01 08:56:00,
2013-05-31 23:02:00,74.5,67.5,30.12,ENE,68,1.4,2.3,79,0.00,SCT,BKN,0.21,0.0,WeatherDisplay:10.37,2013-06-01 09:02:00,
2013-05-31 23:07:00,74.5,67.5,30.12,West,270,2.0,3.5,79,0.00,SCT,BKN,0.21,0.0,WeatherDisplay:10.37,2013-06-01 09:07:00,
2013-05-31 23:12:00,74.7,67.7,30.12,East,90,1.4,2.3,79,0.00,SCT,BKN,0.21,0.0,WeatherDisplay:10.37,2013-06-01 09:12:00,
2013-05-31 23:17:00,74.5,67.9,30.12,East,90,0.9,3.3,80,0.00,SCT,BKN,0.21,0.0,WeatherDisplay:10.37,2013-06-01 09:17:00,
2013-05-31 23:22:00,74.5,67.5,30.12,NE,45,3.3,4.0,79,0.00,SCT,BKN,0.21,0.0,WeatherDisplay:10.37,2013-06-01 09:22:00,
2013-05-31 23:27:00,74.5,67.2,30.12,NE,45,4.3,6.9,78,0.00,SCT,BKN,0.21,0.0,WeatherDisplay:10.37,2013-06-01 09:27:00,
2013-05-31 23:32:00,74.5,67.2,30.12,NNW,338,3.1,3.8,78,0.00,SCT,BKN,0.21,0.0,WeatherDisplay:10.37,2013-06-01 09:32:00,
2013-05-31 23:37:00,74.5,67.2,30.12,ESE,112,2.9,3.5,78,0.00,SCT,BKN,0.21,0.0,WeatherDisplay:10.37,2013-06-01 09:37:00,
2013-05-31 23:42:00,74.5,67.5,30.09,NE,45,0.0,1.2,79,0.00,SCT,BKN,0.21,0.0,WeatherDisplay:10.37,2013-06-01 09:42:00,
2013-05-31 23:47:00,74.5,67.5,30.09,ESE,112,2.2,3.5,79,0.00,SCT,BKN,0.21,0.0,WeatherDisplay:10.37,2013-06-01 09:47:00,
2013-05-31 23:52:00,74.5,67.2,30.09,NE,45,2.9,4.6,78,0.00,SCT,BKN,0.21,0.0,WeatherDisplay:10.37,2013-06-01 09:52:00,
2013-05-31 23:57:00,74.5,67.5,30.09,NE,45,0.9,2.3,79,0.00,SCT,BKN,0.21,0.0,WeatherDisplay:10.37,2013-06-01 09:57:00,